Wetterdaten: Woche 01.09.14 - 07.09.14 (KW36)
Datum Zeit Temp. A. Feuchte A. Luftdruck Regen Wind Richtung Sonnenschein ET UV Solar Taupunkt Windchill Windben
01.09.2014 00:00 11,3 C 95 % 1013,9 hPa 0,0 l/m 0,0 km/h (0 Bft) N 0,00 h 0,000 mm 0,0 UV-I 0 W/m 10,5 C 11,3 C 0,1 km/h (0 Bft)
01.09.2014 01:00 11,2 C 96 % 1014,3 hPa 0,0 l/m 0,6 km/h (0 Bft) W-NW 0,00 h 0,000 mm 0,0 UV-I 0 W/m 10,5 C 11,2 C 1,9 km/h (1 Bft)
01.09.2014 02:00 11,2 C 96 % 1014,4 hPa 0,0 l/m 1,9 km/h (1 Bft) W-NW 0,00 h 0,000 mm 0,0 UV-I 0 W/m 10,6 C 11,2 C 3,9 km/h (1 Bft)
01.09.2014 03:00 11,1 C 95 % 1014,5 hPa 0,0 l/m 3,8 km/h (1 Bft) N-NW 0,00 h 0,000 mm 0,0 UV-I 0 W/m 10,4 C 11,1 C 6,7 km/h (2 Bft)
01.09.2014 04:00 11,1 C 95 % 1014,8 hPa 0,0 l/m 4,5 km/h (1 Bft) N-NW 0,00 h 0,000 mm 0,0 UV-I 0 W/m 10,3 C 11,0 C 7,8 km/h (2 Bft)
01.09.2014 05:00 10,9 C 95 % 1015,1 hPa 0,0 l/m 4,8 km/h (1 Bft) N-NW 0,00 h 0,000 mm 0,0 UV-I 0 W/m 10,2 C 10,7 C 7,9 km/h (2 Bft)
01.09.2014 06:00 11,0 C 95 % 1015,5 hPa 0,0 l/m 5,3 km/h (1 Bft) N-NW 0,00 h 0,000 mm 0,0 UV-I 18 W/m 10,2 C 10,9 C 8,3 km/h (2 Bft)
01.09.2014 07:00 11,2 C 96 % 1015,9 hPa 0,0 l/m 3,7 km/h (1 Bft) N-NW 0,23 h 0,000 mm 0,0 UV-I 37 W/m 10,5 C 11,1 C 6,8 km/h (2 Bft)
01.09.2014 08:00 12,1 C 93 % 1016,2 hPa 0,0 l/m 5,9 km/h (2 Bft) N-NW 1,00 h 0,025 mm 0,7 UV-I 139 W/m 10,9 C 11,7 C 10,3 km/h (2 Bft)
01.09.2014 09:00 13,0 C 89 % 1016,8 hPa 0,0 l/m 6,8 km/h (2 Bft) N-NW 1,00 h 0,076 mm 1,2 UV-I 179 W/m 11,2 C 12,2 C 10,7 km/h (2 Bft)
01.09.2014 10:00 13,2 C 88 % 1017,4 hPa 0,0 l/m 8,1 km/h (2 Bft) N-NW 0,83 h 0,102 mm 1,1 UV-I 125 W/m 11,2 C 12,0 C 12,5 km/h (3 Bft)
01.09.2014 11:00 13,3 C 87 % 1017,6 hPa 0,0 l/m 9,1 km/h (2 Bft) N 1,00 h 0,076 mm 1,2 UV-I 149 W/m 11,2 C 11,8 C 13,5 km/h (3 Bft)
01.09.2014 12:00 13,6 C 85 % 1018,0 hPa 0,2 l/m 6,8 km/h (2 Bft) N-NW 1,00 h 0,102 mm 1,6 UV-I 168 W/m 11,1 C 13,0 C 10,7 km/h (2 Bft)
01.09.2014 13:00 14,2 C 83 % 1018,2 hPa 0,0 l/m 7,5 km/h (2 Bft) N-NW 1,00 h 0,102 mm 2,0 UV-I 219 W/m 11,3 C 13,4 C 11,4 km/h (2 Bft)
01.09.2014 14:00 14,3 C 80 % 1018,4 hPa 0,0 l/m 7,2 km/h (2 Bft) N-NW 1,00 h 0,127 mm 1,1 UV-I 125 W/m 10,8 C 13,5 C 11,3 km/h (2 Bft)
01.09.2014 15:00 14,5 C 79 % 1018,4 hPa 0,0 l/m 7,0 km/h (2 Bft) N-NW 1,00 h 0,076 mm 1,3 UV-I 161 W/m 10,8 C 13,8 C 11,0 km/h (2 Bft)
01.09.2014 16:00 14,4 C 80 % 1018,6 hPa 0,0 l/m 6,7 km/h (2 Bft) NW 1,00 h 0,102 mm 0,8 UV-I 108 W/m 10,9 C 13,7 C 10,8 km/h (2 Bft)
01.09.2014 17:00 14,3 C 81 % 1018,7 hPa 0,0 l/m 3,4 km/h (1 Bft) N-NW 1,00 h 0,076 mm 0,6 UV-I 104 W/m 11,0 C 14,3 C 5,8 km/h (2 Bft)
01.09.2014 18:00 14,3 C 81 % 1018,7 hPa 0,0 l/m 1,2 km/h (1 Bft) W-NW 0,45 h 0,051 mm 0,5 UV-I 52 W/m 11,0 C 14,3 C 2,7 km/h (1 Bft)
01.09.2014 19:00 13,7 C 85 % 1018,8 hPa 0,0 l/m 0,1 km/h (0 Bft) S 0,00 h 0,025 mm 0,0 UV-I 16 W/m 11,3 C 13,7 C 0,7 km/h (0 Bft)
01.09.2014 20:00 13,3 C 88 % 1019,3 hPa 0,0 l/m 1,3 km/h (1 Bft) W 0,00 h 0,000 mm 0,0 UV-I 0 W/m 11,3 C 13,3 C 2,4 km/h (1 Bft)
01.09.2014 21:00 12,8 C 87 % 1019,4 hPa 0,0 l/m 0,3 km/h (0 Bft) W-NW 0,00 h 0,000 mm 0,0 UV-I 0 W/m 10,7 C 12,8 C 0,9 km/h (0 Bft)
01.09.2014 22:00 11,6 C 89 % 1019,5 hPa 0,0 l/m 0,1 km/h (0 Bft) W-NW 0,00 h 0,000 mm 0,0 UV-I 0 W/m 9,8 C 11,6 C 0,3 km/h (0 Bft)
01.09.2014 23:00 10,6 C 92 % 1019,3 hPa 0,0 l/m 0,2 km/h (0 Bft) O 0,00 h 0,000 mm 0,0 UV-I 0 W/m 9,3 C 10,6 C 0,9 km/h (0 Bft)
02.09.2014 00:00 10,1 C 93 % 1019,3 hPa 0,0 l/m 0,1 km/h (0 Bft) O 0,00 h 0,000 mm 0,0 UV-I 0 W/m 9,0 C 10,1 C 0,7 km/h (0 Bft)
02.09.2014 01:00 9,5 C 93 % 1019,4 hPa 0,0 l/m 0,0 km/h (0 Bft) N 0,00 h 0,000 mm 0,0 UV-I 0 W/m 8,5 C 9,5 C 0,0 km/h (0 Bft)
02.09.2014 02:00 8,8 C 94 % 1019,2 hPa 0,0 l/m 0,0 km/h (0 Bft) N 0,00 h 0,000 mm 0,0 UV-I 0 W/m 7,8 C 8,8 C 0,0 km/h (0 Bft)
02.09.2014 03:00 8,6 C 95 % 1019,0 hPa 0,0 l/m 0,0 km/h (0 Bft) N 0,00 h 0,000 mm 0,0 UV-I 0 W/m 7,8 C 8,6 C 0,2 km/h (0 Bft)
02.09.2014 04:00 8,6 C 96 % 1018,9 hPa 0,0 l/m 0,4 km/h (0 Bft) O-SO 0,00 h 0,000 mm 0,0 UV-I 0 W/m 8,0 C 8,6 C 1,0 km/h (0 Bft)
02.09.2014 05:00 8,8 C 96 % 1018,7 hPa 0,0 l/m 0,2 km/h (0 Bft) O-NO 0,00 h 0,000 mm 0,0 UV-I 0 W/m 8,2 C 8,8 C 0,9 km/h (0 Bft)
02.09.2014 06:00 8,7 C 96 % 1018,9 hPa 0,0 l/m 0,1 km/h (0 Bft) O-SO 0,00 h 0,000 mm 0,0 UV-I 8 W/m 8,1 C 8,7 C 0,4 km/h (0 Bft)
02.09.2014 07:00 8,9 C 96 % 1019,1 hPa 0,0 l/m 0,1 km/h (0 Bft) O 0,37 h 0,000 mm 0,5 UV-I 40 W/m 8,3 C 8,9 C 0,5 km/h (0 Bft)
02.09.2014 08:00 10,6 C 97 % 1019,1 hPa 0,0 l/m 0,1 km/h (0 Bft) O 1,00 h 0,025 mm 0,7 UV-I 104 W/m 10,1 C 10,6 C 0,5 km/h (0 Bft)
02.09.2014 09:00 12,5 C 93 % 1019,2 hPa 0,0 l/m 0,1 km/h (0 Bft) O-SO 1,00 h 0,051 mm 1,2 UV-I 188 W/m 11,4 C 12,5 C 0,7 km/h (0 Bft)
02.09.2014 10:00 13,8 C 88 % 1019,4 hPa 0,0 l/m 0,7 km/h (0 Bft) W-SW 1,00 h 0,102 mm 1,0 UV-I 129 W/m 11,9 C 13,8 C 2,2 km/h (1 Bft)
02.09.2014 11:00 13,7 C 91 % 1019,5 hPa 0,0 l/m 3,0 km/h (1 Bft) W 1,00 h 0,076 mm 1,1 UV-I 120 W/m 12,2 C 13,7 C 5,3 km/h (1 Bft)
02.09.2014 12:00 14,7 C 88 % 1019,5 hPa 0,0 l/m 2,4 km/h (1 Bft) W-SW 1,00 h 0,076 mm 1,4 UV-I 184 W/m 12,6 C 14,7 C 4,5 km/h (1 Bft)
02.09.2014 13:00 14,6 C 89 % 1019,5 hPa 0,0 l/m 4,3 km/h (1 Bft) NW 0,68 h 0,102 mm 1,4 UV-I 109 W/m 12,8 C 14,5 C 7,0 km/h (2 Bft)
02.09.2014 14:00 14,3 C 91 % 1019,6 hPa 0,0 l/m 1,5 km/h (1 Bft) NW 1,00 h 0,051 mm 1,1 UV-I 127 W/m 12,9 C 14,3 C 3,3 km/h (1 Bft)
02.09.2014 15:00 15,3 C 89 % 1019,4 hPa 0,0 l/m 1,4 km/h (1 Bft) S 1,00 h 0,076 mm 1,4 UV-I 193 W/m 13,6 C 15,3 C 3,1 km/h (1 Bft)
02.09.2014 16:00 15,3 C 90 % 1019,3 hPa 0,2 l/m 1,1 km/h (1 Bft) NW 0,70 h 0,102 mm 0,7 UV-I 68 W/m 13,6 C 15,3 C 2,5 km/h (1 Bft)
02.09.2014 17:00 15,4 C 89 % 1019,4 hPa 0,0 l/m 3,4 km/h (1 Bft) N-NO 0,62 h 0,051 mm 0,6 UV-I 67 W/m 13,6 C 15,1 C 6,3 km/h (2 Bft)
02.09.2014 18:00 14,9 C 89 % 1019,7 hPa 0,0 l/m 6,7 km/h (2 Bft) N-NO 0,58 h 0,051 mm 0,0 UV-I 51 W/m 13,1 C 14,4 C 10,6 km/h (2 Bft)
02.09.2014 19:00 14,5 C 90 % 1020,2 hPa 0,0 l/m 5,1 km/h (1 Bft) N 0,00 h 0,025 mm 0,0 UV-I 10 W/m 12,8 C 14,3 C 8,5 km/h (2 Bft)
02.09.2014 20:00 14,1 C 92 % 1020,7 hPa 0,0 l/m 5,2 km/h (1 Bft) N 0,00 h 0,000 mm 0,0 UV-I 0 W/m 12,8 C 14,0 C 8,1 km/h (2 Bft)
02.09.2014 21:00 13,8 C 94 % 1021,2 hPa 0,0 l/m 5,5 km/h (1 Bft) N-NO 0,00 h 0,000 mm 0,0 UV-I 0 W/m 12,7 C 13,6 C 9,0 km/h (2 Bft)
02.09.2014 22:00 13,6 C 93 % 1021,4 hPa 0,0 l/m 5,5 km/h (1 Bft) N-NO 0,00 h 0,000 mm 0,0 UV-I 0 W/m 12,5 C 13,3 C 9,0 km/h (2 Bft)
02.09.2014 23:00 13,3 C 92 % 1021,4 hPa 0,0 l/m 4,5 km/h (1 Bft) N 0,00 h 0,000 mm 0,0 UV-I 0 W/m 12,1 C 13,1 C 7,2 km/h (2 Bft)
03.09.2014 00:00 13,2 C 92 % 1021,3 hPa 0,0 l/m 3,9 km/h (1 Bft) N-NW 0,00 h 0,000 mm 0,0 UV-I 0 W/m 11,9 C 13,1 C 6,3 km/h (2 Bft)
03.09.2014 01:00 12,9 C 92 % 1021,1 hPa 0,0 l/m 4,3 km/h (1 Bft) N 0,00 h 0,000 mm 0,0 UV-I 0 W/m 11,6 C 12,9 C 6,8 km/h (2 Bft)
03.09.2014 02:00 12,8 C 92 % 1021,0 hPa 0,0 l/m 4,3 km/h (1 Bft) N 0,00 h 0,000 mm 0,0 UV-I 0 W/m 11,6 C 12,7 C 6,8 km/h (2 Bft)
03.09.2014 03:00 12,7 C 92 % 1020,9 hPa 0,0 l/m 6,0 km/h (2 Bft) N-NO 0,00 h 0,000 mm 0,0 UV-I 0 W/m 11,4 C 12,2 C 9,9 km/h (2 Bft)
03.09.2014 04:00 12,6 C 92 % 1020,7 hPa 0,0 l/m 3,7 km/h (1 Bft) N-NO 0,00 h 0,000 mm 0,0 UV-I 0 W/m 11,2 C 12,6 C 6,1 km/h (2 Bft)
03.09.2014 05:00 12,4 C 91 % 1020,7 hPa 0,0 l/m 3,8 km/h (1 Bft) N-NO 0,00 h 0,000 mm 0,0 UV-I 0 W/m 11,0 C 12,3 C 6,8 km/h (2 Bft)
03.09.2014 06:00 12,2 C 92 % 1020,8 hPa 0,0 l/m 3,9 km/h (1 Bft) N 0,00 h 0,000 mm 0,0 UV-I 5 W/m 10,9 C 12,1 C 6,3 km/h (2 Bft)
03.09.2014 07:00 12,1 C 92 % 1020,9 hPa 0,0 l/m 3,5 km/h (1 Bft) N-NO 0,12 h 0,000 mm 0,0 UV-I 30 W/m 10,9 C 12,1 C 6,1 km/h (2 Bft)
03.09.2014 08:00 13,0 C 91 % 1021,0 hPa 0,0 l/m 3,5 km/h (1 Bft) N-NO 1,00 h 0,025 mm 0,6 UV-I 104 W/m 11,5 C 13,0 C 5,7 km/h (1 Bft)
03.09.2014 09:00 13,4 C 90 % 1021,2 hPa 0,0 l/m 3,4 km/h (1 Bft) N-NO 0,90 h 0,051 mm 0,5 UV-I 62 W/m 11,8 C 13,4 C 5,8 km/h (2 Bft)
03.09.2014 10:00 14,0 C 89 % 1021,5 hPa 0,0 l/m 4,4 km/h (1 Bft) O-NO 1,00 h 0,025 mm 1,1 UV-I 137 W/m 12,2 C 13,8 C 8,4 km/h (2 Bft)
03.09.2014 11:00 15,2 C 85 % 1021,4 hPa 0,0 l/m 3,7 km/h (1 Bft) O-NO 1,00 h 0,076 mm 1,4 UV-I 168 W/m 12,7 C 15,1 C 6,9 km/h (2 Bft)
03.09.2014 12:00 15,9 C 84 % 1021,1 hPa 0,0 l/m 5,2 km/h (1 Bft) N-NO 1,00 h 0,102 mm 1,9 UV-I 209 W/m 13,2 C 15,6 C 8,6 km/h (2 Bft)
03.09.2014 13:00 16,2 C 84 % 1020,8 hPa 0,0 l/m 5,0 km/h (1 Bft) N-NO 1,00 h 0,127 mm 1,8 UV-I 200 W/m 13,4 C 16,0 C 8,4 km/h (2 Bft)
03.09.2014 14:00 17,5 C 79 % 1020,4 hPa 0,0 l/m 2,8 km/h (1 Bft) O-NO 1,00 h 0,127 mm 2,1 UV-I 276 W/m 13,8 C 17,5 C 5,5 km/h (1 Bft)
03.09.2014 15:00 18,0 C 77 % 1019,9 hPa 0,0 l/m 2,8 km/h (1 Bft) O-NO 1,00 h 0,178 mm 1,4 UV-I 182 W/m 13,9 C 17,9 C 5,9 km/h (2 Bft)
03.09.2014 16:00 17,7 C 75 % 1019,7 hPa 0,0 l/m 6,3 km/h (2 Bft) O-NO 1,00 h 0,102 mm 1,0 UV-I 138 W/m 13,3 C 17,3 C 11,6 km/h (2 Bft)
03.09.2014 17:00 17,0 C 79 % 1019,7 hPa 0,0 l/m 1,3 km/h (1 Bft) O 0,57 h 0,102 mm 0,0 UV-I 49 W/m 13,2 C 17,0 C 3,6 km/h (1 Bft)
03.09.2014 18:00 16,7 C 82 % 1019,6 hPa 0,0 l/m 0,4 km/h (0 Bft) NO 0,00 h 0,025 mm 0,0 UV-I 22 W/m 13,5 C 16,7 C 1,8 km/h (1 Bft)
03.09.2014 19:00 16,2 C 84 % 1019,8 hPa 0,0 l/m 6,9 km/h (2 Bft) N-NO 0,00 h 0,025 mm 0,0 UV-I 9 W/m 13,5 C 15,8 C 10,6 km/h (2 Bft)
03.09.2014 20:00 15,8 C 85 % 1020,1 hPa 0,0 l/m 6,2 km/h (2 Bft) N 0,00 h 0,025 mm 0,0 UV-I 0 W/m 13,4 C 15,5 C 9,6 km/h (2 Bft)
03.09.2014 21:00 15,4 C 87 % 1020,3 hPa 0,0 l/m 4,5 km/h (1 Bft) N 0,00 h 0,025 mm 0,0 UV-I 0 W/m 13,3 C 15,3 C 8,2 km/h (2 Bft)
03.09.2014 22:00 15,0 C 86 % 1020,4 hPa 0,0 l/m 5,3 km/h (1 Bft) O-NO 0,00 h 0,026 mm 0,0 UV-I 0 W/m 12,7 C 14,6 C 10,9 km/h (2 Bft)
03.09.2014 23:00 14,4 C 88 % 1020,5 hPa 0,0 l/m 5,2 km/h (1 Bft) O-NO 0,00 h 0,025 mm 0,0 UV-I 0 W/m 12,4 C 13,9 C 10,0 km/h (2 Bft)
04.09.2014 00:00 14,0 C 89 % 1020,4 hPa 0,0 l/m 2,7 km/h (1 Bft) O 0,00 h 0,025 mm 0,0 UV-I 0 W/m 12,2 C 14,0 C 6,3 km/h (2 Bft)
04.09.2014 01:00 14,3 C 90 % 1020,1 hPa 0,0 l/m 2,6 km/h (1 Bft) N-NO 0,00 h 0,000 mm 0,0 UV-I 0 W/m 12,6 C 14,3 C 6,1 km/h (2 Bft)
04.09.2014 02:00 14,3 C 89 % 1019,5 hPa 0,0 l/m 3,2 km/h (1 Bft) O 0,00 h 0,000 mm 0,0 UV-I 0 W/m 12,6 C 14,2 C 7,0 km/h (2 Bft)
04.09.2014 03:00 13,9 C 91 % 1019,5 hPa 0,0 l/m 1,8 km/h (1 Bft) O-NO 0,00 h 0,000 mm 0,0 UV-I 0 W/m 12,5 C 13,9 C 4,4 km/h (1 Bft)
04.09.2014 04:00 14,1 C 91 % 1019,2 hPa 0,0 l/m 5,4 km/h (1 Bft) O-NO 0,00 h 0,000 mm 0,0 UV-I 0 W/m 12,7 C 13,8 C 9,5 km/h (2 Bft)
04.09.2014 05:00 14,4 C 90 % 1018,9 hPa 0,0 l/m 8,2 km/h (2 Bft) O-NO 0,00 h 0,000 mm 0,0 UV-I 0 W/m 12,9 C 13,3 C 13,6 km/h (3 Bft)
04.09.2014 06:00 14,6 C 90 % 1018,9 hPa 0,0 l/m 7,7 km/h (2 Bft) O-NO 0,00 h 0,025 mm 0,0 UV-I 7 W/m 13,0 C 13,7 C 12,7 km/h (3 Bft)
04.09.2014 07:00 14,8 C 89 % 1019,1 hPa 0,0 l/m 6,7 km/h (2 Bft) O-NO 0,00 h 0,000 mm 0,0 UV-I 21 W/m 13,0 C 14,2 C 11,4 km/h (2 Bft)
04.09.2014 08:00 15,3 C 87 % 1019,2 hPa 0,0 l/m 3,7 km/h (1 Bft) O 0,15 h 0,025 mm 0,0 UV-I 40 W/m 13,2 C 15,2 C 7,4 km/h (2 Bft)
04.09.2014 09:00 16,0 C 87 % 1019,0 hPa 0,0 l/m 6,4 km/h (2 Bft) O-NO 1,00 h 0,025 mm 0,7 UV-I 105 W/m 13,8 C 15,4 C 11,4 km/h (2 Bft)
04.09.2014 10:00 16,8 C 84 % 1018,9 hPa 0,0 l/m 5,8 km/h (2 Bft) O 1,00 h 0,076 mm 1,2 UV-I 159 W/m 14,0 C 16,3 C 11,8 km/h (2 Bft)
04.09.2014 11:00 18,8 C 78 % 1018,8 hPa 0,0 l/m 6,7 km/h (2 Bft) O 1,00 h 0,102 mm 3,6 UV-I 630 W/m 15,0 C 18,2 C 13,1 km/h (3 Bft)
04.09.2014 12:00 18,4 C 79 % 1018,9 hPa 0,2 l/m 6,0 km/h (2 Bft) SO 1,00 h 0,356 mm 2,5 UV-I 324 W/m 14,7 C 18,0 C 11,5 km/h (2 Bft)
04.09.2014 13:00 20,1 C 74 % 1018,5 hPa 0,0 l/m 7,6 km/h (2 Bft) O-NO 1,00 h 0,203 mm 4,0 UV-I 565 W/m 15,4 C 19,4 C 13,8 km/h (3 Bft)
04.09.2014 14:00 21,4 C 71 % 1018,0 hPa 0,0 l/m 6,1 km/h (2 Bft) O-NO 1,00 h 0,356 mm 3,8 UV-I 602 W/m 15,9 C 21,1 C 11,2 km/h (2 Bft)
04.09.2014 15:00 22,6 C 68 % 1017,5 hPa 0,0 l/m 6,6 km/h (2 Bft) O 1,00 h 0,381 mm 2,9 UV-I 536 W/m 16,5 C 22,2 C 12,1 km/h (2 Bft)
04.09.2014 16:00 23,1 C 67 % 1017,0 hPa 0,0 l/m 5,9 km/h (2 Bft) O 1,00 h 0,356 mm 1,8 UV-I 406 W/m 16,6 C 22,9 C 11,1 km/h (2 Bft)
04.09.2014 17:00 22,5 C 68 % 1016,7 hPa 0,0 l/m 6,0 km/h (2 Bft) O-SO 1,00 h 0,279 mm 1,0 UV-I 261 W/m 16,3 C 22,2 C 11,6 km/h (2 Bft)
04.09.2014 18:00 21,3 C 72 % 1016,6 hPa 0,0 l/m 3,6 km/h (1 Bft) SO 0,57 h 0,178 mm 0,5 UV-I 82 W/m 16,0 C 21,3 C 7,9 km/h (2 Bft)
04.09.2014 19:00 19,8 C 77 % 1016,6 hPa 0,0 l/m 2,5 km/h (1 Bft) O 0,00 h 0,076 mm 0,0 UV-I 19 W/m 15,7 C 19,8 C 6,2 km/h (2 Bft)
04.09.2014 20:00 18,4 C 83 % 1016,8 hPa 0,0 l/m 2,2 km/h (1 Bft) O-NO 0,00 h 0,025 mm 0,0 UV-I 0 W/m 15,5 C 18,4 C 5,3 km/h (1 Bft)
04.09.2014 21:00 17,4 C 87 % 1016,8 hPa 0,0 l/m 1,4 km/h (1 Bft) N-NO 0,00 h 0,025 mm 0,0 UV-I 0 W/m 15,2 C 17,4 C 3,0 km/h (1 Bft)
04.09.2014 22:00 16,8 C 89 % 1016,7 hPa 0,0 l/m 0,7 km/h (0 Bft) N-NO 0,00 h 0,025 mm 0,0 UV-I 0 W/m 15,0 C 16,8 C 2,0 km/h (1 Bft)
04.09.2014 23:00 16,5 C 89 % 1016,8 hPa 0,0 l/m 0,8 km/h (0 Bft) N-NO 0,00 h 0,000 mm 0,0 UV-I 0 W/m 14,7 C 16,5 C 2,1 km/h (1 Bft)
05.09.2014 00:00 16,3 C 90 % 1016,7 hPa 0,0 l/m 1,2 km/h (1 Bft) O-NO 0,00 h 0,000 mm 0,0 UV-I 0 W/m 14,7 C 16,3 C 3,4 km/h (1 Bft)
05.09.2014 01:00 16,3 C 90 % 1016,3 hPa 0,0 l/m 4,3 km/h (1 Bft) O-NO 0,00 h 0,000 mm 0,0 UV-I 0 W/m 14,7 C 16,2 C 8,4 km/h (2 Bft)
05.09.2014 02:00 16,1 C 90 % 1016,0 hPa 0,0 l/m 3,0 km/h (1 Bft) N-NO 0,00 h 0,000 mm 0,0 UV-I 0 W/m 14,5 C 16,1 C 6,3 km/h (2 Bft)
05.09.2014 03:00 15,9 C 92 % 1015,7 hPa 0,0 l/m 3,0 km/h (1 Bft) O-NO 0,00 h 0,000 mm 0,0 UV-I 0 W/m 14,5 C 15,9 C 6,5 km/h (2 Bft)
05.09.2014 04:00 15,5 C 92 % 1015,4 hPa 0,0 l/m 2,5 km/h (1 Bft) N-NO 0,00 h 0,000 mm 0,0 UV-I 0 W/m 14,3 C 15,5 C 5,8 km/h (2 Bft)
05.09.2014 05:00 15,2 C 94 % 1015,1 hPa 0,0 l/m 3,1 km/h (1 Bft) N-NO 0,00 h 0,000 mm 0,0 UV-I 0 W/m 14,1 C 15,2 C 6,5 km/h (2 Bft)
05.09.2014 06:00 15,2 C 94 % 1014,9 hPa 0,0 l/m 4,5 km/h (1 Bft) N-NO 0,00 h 0,000 mm 0,0 UV-I 11 W/m 14,2 C 15,1 C 9,1 km/h (2 Bft)
05.09.2014 07:00 15,4 C 95 % 1015,0 hPa 0,0 l/m 1,3 km/h (1 Bft) N-NO 0,48 h 0,000 mm 0,0 UV-I 48 W/m 14,6 C 15,4 C 2,7 km/h (1 Bft)
05.09.2014 08:00 16,4 C 93 % 1015,2 hPa 0,0 l/m 0,5 km/h (0 Bft) O-SO 0,87 h 0,025 mm 0,7 UV-I 95 W/m 15,3 C 16,4 C 1,4 km/h (1 Bft)
05.09.2014 09:00 18,1 C 87 % 1015,1 hPa 0,0 l/m 3,4 km/h (1 Bft) SO 1,00 h 0,051 mm 1,3 UV-I 266 W/m 15,9 C 18,1 C 7,4 km/h (2 Bft)
05.09.2014 10:00 18,8 C 84 % 1015,1 hPa 0,0 l/m 5,4 km/h (1 Bft) SO 1,00 h 0,152 mm 2,5 UV-I 423 W/m 16,0 C 18,5 C 9,2 km/h (2 Bft)
05.09.2014 11:00 21,0 C 77 % 1014,9 hPa 0,0 l/m 4,5 km/h (1 Bft) O-NO 1,00 h 0,254 mm 3,9 UV-I 672 W/m 16,8 C 20,9 C 8,7 km/h (2 Bft)
05.09.2014 12:00 22,2 C 72 % 1014,5 hPa 0,0 l/m 4,3 km/h (1 Bft) SO 1,00 h 0,381 mm 4,5 UV-I 675 W/m 17,0 C 22,2 C 8,5 km/h (2 Bft)
05.09.2014 13:00 23,7 C 66 % 1013,9 hPa 0,0 l/m 4,5 km/h (1 Bft) O-NO 1,00 h 0,406 mm 4,6 UV-I 678 W/m 17,0 C 23,6 C 8,4 km/h (2 Bft)
05.09.2014 14:00 24,6 C 59 % 1013,4 hPa 0,0 l/m 5,4 km/h (1 Bft) O-SO 1,00 h 0,432 mm 4,1 UV-I 649 W/m 16,1 C 24,4 C 9,9 km/h (2 Bft)
05.09.2014 15:00 24,7 C 58 % 1012,9 hPa 0,0 l/m 5,9 km/h (2 Bft) SO 1,00 h 0,432 mm 2,9 UV-I 514 W/m 15,8 C 24,5 C 9,7 km/h (2 Bft)
05.09.2014 16:00 24,3 C 59 % 1012,5 hPa 0,0 l/m 5,1 km/h (1 Bft) SO 1,00 h 0,356 mm 1,8 UV-I 365 W/m 15,8 C 24,2 C 9,3 km/h (2 Bft)
05.09.2014 17:00 23,8 C 61 % 1012,3 hPa 0,0 l/m 3,7 km/h (1 Bft) O-SO 1,00 h 0,254 mm 0,9 UV-I 210 W/m 16,0 C 23,8 C 6,8 km/h (2 Bft)
05.09.2014 18:00 22,5 C 67 % 1012,1 hPa 0,0 l/m 2,0 km/h (1 Bft) O-SO 0,20 h 0,152 mm 0,5 UV-I 40 W/m 16,0 C 22,5 C 4,5 km/h (1 Bft)
05.09.2014 19:00 21,1 C 74 % 1012,5 hPa 0,0 l/m 0,1 km/h (0 Bft) O-SO 0,00 h 0,051 mm 0,0 UV-I 15 W/m 16,3 C 21,1 C 0,8 km/h (0 Bft)
05.09.2014 20:00 19,1 C 84 % 1012,7 hPa 0,0 l/m 0,3 km/h (0 Bft) O-SO 0,00 h 0,000 mm 0,0 UV-I 0 W/m 16,4 C 19,1 C 1,6 km/h (1 Bft)
05.09.2014 21:00 18,3 C 87 % 1013,0 hPa 0,0 l/m 0,2 km/h (0 Bft) SO 0,00 h 0,025 mm 0,0 UV-I 0 W/m 16,2 C 18,3 C 0,9 km/h (0 Bft)
05.09.2014 22:00 17,0 C 91 % 1012,9 hPa 0,0 l/m 0,9 km/h (0 Bft) O 0,00 h 0,001 mm 0,0 UV-I 0 W/m 15,6 C 17,0 C 2,0 km/h (1 Bft)
05.09.2014 23:00 15,9 C 93 % 1013,0 hPa 0,0 l/m 0,0 km/h (0 Bft) N 0,00 h 0,000 mm 0,0 UV-I 0 W/m 14,8 C 15,9 C 0,2 km/h (0 Bft)
06.09.2014 00:00 15,3 C 93 % 1012,9 hPa 0,0 l/m 0,1 km/h (0 Bft) SO 0,00 h 0,000 mm 0,0 UV-I 0 W/m 14,2 C 15,3 C 0,5 km/h (0 Bft)
06.09.2014 01:00 14,7 C 93 % 1012,9 hPa 0,0 l/m 0,0 km/h (0 Bft) N 0,00 h 0,000 mm 0,0 UV-I 0 W/m 13,6 C 14,7 C 0,0 km/h (0 Bft)
06.09.2014 02:00 14,1 C 94 % 1012,7 hPa 0,0 l/m 0,0 km/h (0 Bft) N 0,00 h 0,000 mm 0,0 UV-I 0 W/m 13,2 C 14,1 C 0,3 km/h (0 Bft)
06.09.2014 03:00 14,1 C 95 % 1012,6 hPa 0,0 l/m 0,0 km/h (0 Bft) N 0,00 h 0,000 mm 0,0 UV-I 0 W/m 13,3 C 14,1 C 0,0 km/h (0 Bft)
06.09.2014 04:00 14,0 C 95 % 1012,6 hPa 0,0 l/m 0,0 km/h (0 Bft) N 0,00 h 0,000 mm 0,0 UV-I 0 W/m 13,3 C 14,0 C 0,0 km/h (0 Bft)
06.09.2014 05:00 14,1 C 96 % 1012,5 hPa 0,0 l/m 0,0 km/h (0 Bft) N 0,00 h 0,000 mm 0,0 UV-I 0 W/m 13,3 C 14,1 C 0,0 km/h (0 Bft)
06.09.2014 06:00 13,9 C 95 % 1012,4 hPa 0,0 l/m 0,0 km/h (0 Bft) N 0,00 h 0,000 mm 0,0 UV-I 8 W/m 13,1 C 13,9 C 0,0 km/h (0 Bft)
06.09.2014 07:00 13,9 C 96 % 1012,6 hPa 0,0 l/m 0,0 km/h (0 Bft) NO 0,05 h 0,000 mm 0,0 UV-I 28 W/m 13,3 C 13,9 C 0,4 km/h (0 Bft)
06.09.2014 08:00 15,0 C 95 % 1012,8 hPa 0,0 l/m 0,0 km/h (0 Bft) N 1,00 h 0,025 mm 0,6 UV-I 106 W/m 14,3 C 15,0 C 0,1 km/h (0 Bft)
06.09.2014 09:00 17,9 C 88 % 1012,9 hPa 0,0 l/m 0,1 km/h (0 Bft) S 1,00 h 0,051 mm 1,4 UV-I 306 W/m 15,8 C 17,9 C 0,8 km/h (0 Bft)
06.09.2014 10:00 20,6 C 75 % 1012,9 hPa 0,0 l/m 2,8 km/h (1 Bft) W-SW 1,00 h 0,178 mm 2,3 UV-I 474 W/m 16,0 C 20,6 C 5,1 km/h (1 Bft)
06.09.2014 11:00 21,8 C 67 % 1012,8 hPa 0,0 l/m 4,4 km/h (1 Bft) W 1,00 h 0,279 mm 3,4 UV-I 566 W/m 15,5 C 21,7 C 7,6 km/h (2 Bft)
06.09.2014 12:00 22,5 C 65 % 1012,7 hPa 0,0 l/m 6,2 km/h (2 Bft) S-SO 1,00 h 0,330 mm 3,9 UV-I 528 W/m 15,5 C 22,3 C 9,9 km/h (2 Bft)
06.09.2014 13:00 23,4 C 62 % 1012,4 hPa 0,0 l/m 7,1 km/h (2 Bft) S 1,00 h 0,356 mm 4,3 UV-I 650 W/m 15,7 C 23,1 C 11,7 km/h (2 Bft)
06.09.2014 14:00 24,0 C 59 % 1011,9 hPa 0,0 l/m 7,1 km/h (2 Bft) W-SW 1,00 h 0,432 mm 3,8 UV-I 581 W/m 15,4 C 23,7 C 11,8 km/h (2 Bft)
06.09.2014 15:00 24,3 C 57 % 1011,3 hPa 0,0 l/m 6,2 km/h (2 Bft) SW 1,00 h 0,406 mm 2,9 UV-I 516 W/m 15,2 C 24,0 C 10,1 km/h (2 Bft)
06.09.2014 16:00 24,3 C 55 % 1010,9 hPa 0,0 l/m 7,0 km/h (2 Bft) S 1,00 h 0,356 mm 1,9 UV-I 408 W/m 14,6 C 24,0 C 10,9 km/h (2 Bft)
06.09.2014 17:00 23,8 C 56 % 1010,9 hPa 0,0 l/m 4,6 km/h (1 Bft) S-SW 1,00 h 0,305 mm 0,9 UV-I 216 W/m 14,5 C 23,7 C 7,5 km/h (2 Bft)
06.09.2014 18:00 22,9 C 57 % 1011,3 hPa 0,0 l/m 5,7 km/h (1 Bft) S 1,00 h 0,178 mm 0,5 UV-I 128 W/m 14,0 C 22,6 C 9,9 km/h (2 Bft)
06.09.2014 19:00 19,4 C 69 % 1011,5 hPa 0,0 l/m 2,3 km/h (1 Bft) O-NO 0,25 h 0,127 mm 0,0 UV-I 38 W/m 13,6 C 19,4 C 5,2 km/h (1 Bft)
06.09.2014 20:00 17,6 C 81 % 1011,7 hPa 0,0 l/m 3,6 km/h (1 Bft) O-NO 0,00 h 0,025 mm 0,0 UV-I 0 W/m 14,3 C 17,6 C 6,6 km/h (2 Bft)
06.09.2014 21:00 16,5 C 87 % 1012,2 hPa 0,0 l/m 0,2 km/h (0 Bft) O 0,00 h 0,025 mm 0,0 UV-I 0 W/m 14,2 C 16,5 C 0,9 km/h (0 Bft)
06.09.2014 22:00 15,3 C 91 % 1012,4 hPa 0,0 l/m 0,0 km/h (0 Bft) N 0,00 h 0,000 mm 0,0 UV-I 0 W/m 13,9 C 15,3 C 0,1 km/h (0 Bft)
06.09.2014 23:00 14,7 C 93 % 1012,6 hPa 0,0 l/m 0,2 km/h (0 Bft) O-SO 0,00 h 0,000 mm 0,0 UV-I 0 W/m 13,5 C 14,7 C 0,8 km/h (0 Bft)
07.09.2014 00:00 14,2 C 94 % 1012,7 hPa 0,0 l/m 0,0 km/h (0 Bft) N 0,00 h 0,000 mm 0,0 UV-I 0 W/m 13,2 C 14,2 C 0,1 km/h (0 Bft)
07.09.2014 01:00 13,9 C 94 % 1012,8 hPa 0,0 l/m 0,1 km/h (0 Bft) O-SO 0,00 h 0,000 mm 0,0 UV-I 0 W/m 13,0 C 13,9 C 0,7 km/h (0 Bft)
07.09.2014 02:00 13,5 C 93 % 1012,8 hPa 0,0 l/m 0,0 km/h (0 Bft) N 0,00 h 0,000 mm 0,0 UV-I 0 W/m 12,4 C 13,5 C 0,1 km/h (0 Bft)
07.09.2014 03:00 12,9 C 94 % 1012,7 hPa 0,0 l/m 0,1 km/h (0 Bft) N-NO 0,00 h 0,000 mm 0,0 UV-I 0 W/m 11,9 C 12,9 C 0,1 km/h (0 Bft)
07.09.2014 04:00 12,6 C 95 % 1012,7 hPa 0,0 l/m 0,1 km/h (0 Bft) N-NO 0,00 h 0,000 mm 0,0 UV-I 0 W/m 11,8 C 12,6 C 0,5 km/h (0 Bft)
07.09.2014 05:00 12,2 C 94 % 1012,6 hPa 0,0 l/m 0,1 km/h (0 Bft) N-NO 0,00 h 0,000 mm 0,0 UV-I 0 W/m 11,4 C 12,2 C 0,3 km/h (0 Bft)
07.09.2014 06:00 12,2 C 95 % 1012,8 hPa 0,0 l/m 0,0 km/h (0 Bft) N 0,00 h 0,000 mm 0,0 UV-I 11 W/m 11,4 C 12,2 C 0,2 km/h (0 Bft)
07.09.2014 07:00 12,2 C 96 % 1012,9 hPa 0,0 l/m 0,1 km/h (0 Bft) O-SO 0,08 h 0,000 mm 0,0 UV-I 33 W/m 11,5 C 12,2 C 0,3 km/h (0 Bft)
07.09.2014 08:00 13,9 C 94 % 1013,3 hPa 0,0 l/m 0,0 km/h (0 Bft) N 1,00 h 0,025 mm 0,7 UV-I 154 W/m 12,9 C 13,9 C 0,3 km/h (0 Bft)
07.09.2014 09:00 17,2 C 86 % 1013,6 hPa 0,0 l/m 0,1 km/h (0 Bft) SW 1,00 h 0,076 mm 1,5 UV-I 356 W/m 14,8 C 17,2 C 0,8 km/h (0 Bft)
07.09.2014 10:00 20,1 C 79 % 1013,6 hPa 0,0 l/m 2,6 km/h (1 Bft) SO 1,00 h 0,203 mm 2,6 UV-I 492 W/m 16,3 C 20,1 C 4,8 km/h (1 Bft)
07.09.2014 11:00 22,1 C 73 % 1013,4 hPa 0,0 l/m 3,4 km/h (1 Bft) W-SW 1,00 h 0,279 mm 3,7 UV-I 599 W/m 16,9 C 22,0 C 6,1 km/h (2 Bft)
07.09.2014 12:00 23,2 C 67 % 1013,0 hPa 0,0 l/m 4,5 km/h (1 Bft) W-SW 1,00 h 0,381 mm 3,8 UV-I 506 W/m 16,8 C 23,1 C 7,4 km/h (2 Bft)
07.09.2014 13:00 23,7 C 61 % 1012,6 hPa 0,0 l/m 6,5 km/h (2 Bft) W-SW 1,00 h 0,330 mm 2,8 UV-I 379 W/m 15,7 C 23,4 C 10,1 km/h (2 Bft)
07.09.2014 14:00 21,0 C 73 % 1013,1 hPa 0,0 l/m 5,9 km/h (2 Bft) O 1,00 h 0,279 mm 2,3 UV-I 266 W/m 15,7 C 20,7 C 10,7 km/h (2 Bft)
07.09.2014 15:00 20,4 C 71 % 1013,0 hPa 0,0 l/m 4,7 km/h (1 Bft) O-NO 1,00 h 0,178 mm 2,2 UV-I 377 W/m 15,1 C 20,3 C 8,5 km/h (2 Bft)
07.09.2014 16:00 20,5 C 78 % 1012,7 hPa 0,0 l/m 3,5 km/h (1 Bft) SO 1,00 h 0,254 mm 1,0 UV-I 152 W/m 16,5 C 20,5 C 6,5 km/h (2 Bft)
07.09.2014 17:00 20,8 C 75 % 1013,0 hPa 0,0 l/m 2,8 km/h (1 Bft) O-SO 1,00 h 0,102 mm 0,8 UV-I 231 W/m 16,2 C 20,8 C 5,6 km/h (1 Bft)
07.09.2014 18:00 19,4 C 79 % 1013,1 hPa 0,0 l/m 1,0 km/h (0 Bft) O 0,12 h 0,152 mm 0,0 UV-I 31 W/m 15,5 C 19,4 C 2,7 km/h (1 Bft)
07.09.2014 19:00 18,6 C 83 % 1013,3 hPa 0,0 l/m 1,4 km/h (1 Bft) O-NO 0,00 h 0,025 mm 0,0 UV-I 13 W/m 15,7 C 18,6 C 3,0 km/h (1 Bft)
07.09.2014 20:00 17,5 C 88 % 1013,8 hPa 0,0 l/m 1,1 km/h (1 Bft) O 0,00 h 0,000 mm 0,0 UV-I 0 W/m 15,4 C 17,5 C 2,8 km/h (1 Bft)
07.09.2014 21:00 16,2 C 92 % 1014,3 hPa 0,0 l/m 0,5 km/h (0 Bft) O-SO 0,00 h 0,000 mm 0,0 UV-I 0 W/m 14,8 C 16,2 C 1,3 km/h (1 Bft)
07.09.2014 22:00 15,2 C 94 % 1014,5 hPa 0,0 l/m 0,4 km/h (0 Bft) O 0,00 h 0,000 mm 0,0 UV-I 0 W/m 14,3 C 15,2 C 0,9 km/h (0 Bft)
07.09.2014 23:00 14,3 C 95 % 1014,7 hPa 0,0 l/m 1,4 km/h (1 Bft) O 0,00 h 0,000 mm 0,0 UV-I 0 W/m 13,5 C 14,3 C 2,7 km/h (1 Bft)
Min-Datum _ 05.09.14 06.09.14 06.09.14 - 01.09.14 - - - - - 02.09.14 01.09.14 01.09.14
_ Min-Zeit 07:30 16:09 16:35 - 00:00 - - - - - 03:57 11:40 00:00
Minimum _ 0,0 C 52 % 1010,8 hPa - 0,0 km/h (0 Bft) - - - - - 7,6 C 7,9 C 0,0 km/h (0 Bft)
Max-Datum _ 05.09.14 02.09.14 03.09.14 01.09.14 01.09.14 - 01.09.14 05.09.14 07.09.14 07.09.14 05.09.14 05.09.14 04.09.14
_ Max-Zeit 14:39 07:46 10:20 12:31 11:40 - 11:36 14:00 13:06 13:15 13:12 14:44 13:33
Maximum _ 24,9 C 97 % 1021,6 hPa 0,2 l/m 17,7 km/h
N (3 Bft)
- 0,07 h 0,432 mm 5,1 UV-I 868 W/m 18,0 C 24,9 C 25,7 km/h
O-SO (4 Bft)
Durchschnitt _ 15,9 C 85 % 1016,5 hPa #0,6 l/m 3,1 km/h (1 Bft) N-NO #71:49 h #13,661 mm 1,8 UV-I 216 W/m 13,2 C 15,8 C 5,7 km/h (1 Bft)